x

Molasses Reef, Fl (mlrf1) Weather Station

9:00am - Sun 20th Apr 2014 All times are EDT. -4 hours from GMT.

  • Wind
    13mph, 15mph gusts
  • Sea Temp 78°f
  • Air Temp 69°f
  • Sea Pressure 1016.9mb
  • Molasses Reef, Fl
  • Molasses Reef, Fl

More Historic Weather Station data

Upgrade to MSW Pro to gain access to the past 30 days of data for over 8000 Wavebouys and Weather Stations around the globe.

Join Pro

Comparision Forecast

View Surf forecast
   
Sun 04/20 9:00am 13 15 mph 1016.9mb 78f 69f
8:00am 14 15 mph 1016.5mb 78f 69f
7:00am 13 15 mph 1015.6mb 78f 70f
6:00am 14 15 mph 1014.8mb 78f 71f
5:00am 21 23 mph 1014.6mb 78f 72f
4:00am 21 25 mph 1014.5mb 78f 72f
3:00am 11 15 mph 1015.2mb 78f 71f
2:00am 18 20 mph 1015.6mb 78f 73f
1:00am 20 24 mph 1015.7mb 78f 73f
12:00am 20 22 mph 1016mb 78f 74f
Sat 04/19 11:00pm 18 21 mph 1016.2mb 78f 73f
10:00pm 20 22 mph 1015.7mb 78f 75f
9:00pm 20 22 mph 1015mb 78f 76f
8:00pm 22 25 mph 1014.1mb 78f 76f
7:00pm 22 24 mph 1013.5mb 79f 77f
6:00pm 21 23 mph 1013.2mb 79f 78f
5:00pm 22 23 mph 1012.9mb 80f 78f
4:00pm 16 17 mph 1013.4mb 80f 79f
3:00pm 15 16 mph 1013.7mb 80f 79f
2:00pm 6 7 mph 1014.4mb 79f 80f
1:00pm 10 11 mph 1014.7mb 79f 79f
12:00pm 11 13 mph 1015.2mb 79f 79f
11:00am 15 16 mph 1015.2mb 79f 78f
10:00am 10 11 mph 1015.1mb 78f 78f
9:00am 11 13 mph 1014.7mb 78f 79f
8:00am 16 20 mph 1014.5mb 78f 79f
7:00am 15 16 mph 1013.7mb 78f 79f
6:00am 20 22 mph 1013.1mb 79f 79f
5:00am 20 22 mph 1012.8mb 80f 79f
4:00am 15 16 mph 1013.1mb 79f 79f
3:00am 16 17 mph 1013.1mb 79f 79f
2:00am 18 21 mph 1014.4mb 79f 79f
1:00am 17 18 mph 1015mb 79f 79f
12:00am 17 20 mph 1015mb 79f 79f
Fri 04/18 11:00pm 20 22 mph 1014.9mb 79f 79f
10:00pm 15 16 mph 1015.3mb 80f 79f
9:00pm 13
mph
1015.1mb 80f 79f
8:00pm 11 13 mph 1014.8mb 79f 79f
7:00pm 11
mph
1014.7mb 79f 79f
6:00pm 9 10 mph 1015.2mb 79f 79f
5:00pm 14 15 mph 1015.6mb 79f 79f
4:00pm 16 18 mph 1015.5mb 79f 78f
3:00pm 14 15 mph 1016.4mb 79f 79f
2:00pm 16 17 mph 1016.5mb 79f 78f
1:00pm 17 18 mph 1017.1mb 79f 79f
12:00pm 13 14 mph 1017.7mb 79f 78f
11:00am 21 23 mph 1017.3mb 78f 78f
10:00am 18 21 mph 1017.5mb 78f 78f
9:00am 16 18 mph 1017.9mb 78f 78f
8:00am 18 21 mph 1017.5mb 78f 78f
7:00am 22 25 mph 1016.2mb 78f 78f
6:00am 17 20 mph 1015.9mb 79f 78f
5:00am 20 21 mph 1016.2mb 78f 78f
4:00am 18 21 mph 1016.2mb 78f 78f
3:00am 20 23 mph 1016.6mb 79f 78f
2:00am 22 23 mph 1016.9mb 78f 78f
1:00am 17 20 mph 1017.7mb 78f 79f
12:00am 20 22 mph 1018.1mb 78f 78f
Thu 04/17 11:00pm 20 23 mph 1018.4mb 78f 76f
10:00pm 21 24 mph 1017.9mb 78f 77f
9:00pm 22 24 mph 1017.4mb 78f 78f
8:00pm 24 26 mph 1017mb 78f 78f
7:00pm 20 21 mph 1017.4mb 78f 79f
6:00pm 21 22 mph 1017.1mb 79f 79f
5:00pm 18 21 mph 1017.4mb 79f 79f
4:00pm 17 18 mph 1017.5mb 79f 79f
3:00pm 15 16 mph 1018.2mb 79f 79f
2:00pm 14 15 mph 1019mb 79f 79f
1:00pm 10 14 mph 1019.6mb 79f 79f
12:00pm 8 10 mph 1019.7mb 79f 79f
11:00am 8 9 mph 1019.8mb 78f 79f
10:00am 10
mph
1019.1mb 78f 78f
9:00am 14 15 mph 1018.8mb 78f 77f
8:00am 10 11 mph 1018.2mb 78f 78f
7:00am 14 16 mph 1017.3mb 78f 78f
6:00am 13 14 mph 1016.9mb 78f 78f
5:00am 15 16 mph 1016.5mb 78f 77f
4:00am 14 16 mph 1016.6mb 78f 77f
3:00am 17 18 mph 1016.6mb 78f 77f
2:00am 18 20 mph 1017mb 78f 77f
1:00am 16 17 mph 1017.7mb 78f 77f
12:00am 16 17 mph 1018mb 78f 78f
Wed 04/16 11:00pm 17 18 mph 1018mb 78f 78f
10:00pm 17 20 mph 1017.4mb 77f 78f
9:00pm 21 22 mph 1016.8mb 77f 77f
8:00pm 18 21 mph 1016.3mb 77f 77f
7:00pm 20 22 mph 1015.5mb 78f 77f
6:00pm 18 20 mph 1015.3mb 78f 77f
5:00pm 18 21 mph 1015.3mb 78f 77f
4:00pm 18 21 mph 1015.3mb 78f 76f
3:00pm 17 20 mph 1016mb 77f 76f